createdAt,value
2018-08-10T00:00:41.009Z,60.03
2018-08-10T00:03:10.328Z,60.01
2018-08-10T00:05:39.815Z,60.19
2018-08-10T00:08:08.950Z,59.68
2018-08-10T00:10:37.679Z,59.61
2018-08-10T00:13:06.414Z,59.47
2018-08-10T00:15:35.085Z,59.73
2018-08-10T00:18:03.849Z,59.18
2018-08-10T00:20:32.677Z,58.84
2018-08-10T00:23:01.401Z,59.62
2018-08-10T00:25:30.234Z,58.84
2018-08-10T00:27:59.078Z,59.36
2018-08-10T00:30:27.988Z,59.22
2018-08-10T00:32:56.796Z,58.96
2018-08-10T00:35:25.587Z,59.18
2018-08-10T00:37:54.692Z,59.31
2018-08-10T00:40:24.278Z,59.62
2018-08-10T00:42:53.216Z,60.05
2018-08-10T00:45:21.904Z,60.47
2018-08-10T00:47:50.576Z,60.61
2018-08-10T00:50:19.395Z,60.46
2018-08-10T00:52:49.002Z,60.95
2018-08-10T00:55:18.884Z,60.77
2018-08-10T00:57:48.393Z,61.24
2018-08-10T01:00:20.988Z,60.64
2018-08-10T01:02:50.355Z,59.83
2018-08-10T01:05:19.383Z,59.40
2018-08-10T01:07:48.220Z,59.11
2018-08-10T01:10:18.484Z,59.48
2018-08-10T01:12:47.343Z,59.90
2018-08-10T01:15:17.784Z,59.79
2018-08-10T01:17:48.323Z,60.23
2018-08-10T01:20:22.172Z,59.90
2018-08-10T01:22:56.186Z,60.26
2018-08-10T01:25:26.861Z,60.08
2018-08-10T01:27:56.865Z,60.13
2018-08-10T01:30:26.942Z,59.99
2018-08-10T01:32:55.935Z,59.91
2018-08-10T01:35:25.386Z,59.38
2018-08-10T01:37:55.708Z,58.71
2018-08-10T01:40:24.466Z,58.80
2018-08-10T01:42:54.017Z,58.99
2018-08-10T01:45:22.822Z,59.18
2018-08-10T01:47:51.590Z,59.15
2018-08-10T01:50:20.405Z,58.99
2018-08-10T01:52:49.228Z,58.90
2018-08-10T01:55:18.090Z,59.32
2018-08-10T01:57:46.908Z,58.76
2018-08-10T02:00:15.637Z,58.86
2018-08-10T02:02:44.383Z,58.70
2018-08-10T02:05:14.542Z,58.45
2018-08-10T02:07:43.740Z,58.55
2018-08-10T02:10:14.803Z,58.15
2018-08-10T02:12:44.410Z,57.46
2018-08-10T02:15:15.275Z,56.96
2018-08-10T02:17:44.007Z,57.10
2018-08-10T02:20:15.209Z,57.57
2018-08-10T02:22:44.424Z,57.62
2018-08-10T02:25:14.826Z,58.16
2018-08-10T02:27:44.486Z,58.32
2018-08-10T02:30:14.650Z,58.86
2018-08-10T02:32:44.106Z,58.50
2018-08-10T02:35:12.968Z,58.96
2018-08-10T02:37:42.273Z,59.60
2018-08-10T02:40:16.329Z,59.83
2018-08-10T02:42:46.163Z,59.59
2018-08-10T02:45:15.385Z,59.60
2018-08-10T02:47:44.662Z,59.36
2018-08-10T02:50:13.513Z,58.72
2018-08-10T02:52:42.255Z,57.47
2018-08-10T02:55:11.666Z,57.72
2018-08-10T02:57:40.924Z,57.36
2018-08-10T03:00:12.196Z,57.64
2018-08-10T03:02:41.956Z,55.78
2018-08-10T03:05:11.308Z,55.93
2018-08-10T03:07:40.668Z,54.86
2018-08-10T03:10:11.243Z,55.29
2018-08-10T03:12:40.168Z,54.61
2018-08-10T03:15:11.671Z,54.44
2018-08-10T03:17:40.337Z,53.41
2018-08-10T03:20:09.773Z,53.58
2018-08-10T03:22:38.768Z,53.13
2018-08-10T03:25:08.892Z,53.06
2018-08-10T03:27:37.891Z,51.87
2018-08-10T03:30:08.053Z,52.88
2018-08-10T03:32:37.248Z,52.00
2018-08-10T03:35:06.163Z,52.00
2018-08-10T03:37:35.239Z,52.21
2018-08-10T03:40:04.497Z,51.53
2018-08-10T03:42:33.196Z,51.86
2018-08-10T03:45:01.948Z,51.30
2018-08-10T03:47:30.818Z,51.61
2018-08-10T03:49:59.667Z,51.90
2018-08-10T03:52:28.410Z,51.05
2018-08-10T03:54:57.178Z,51.45
2018-08-10T03:57:26.000Z,50.72
2018-08-10T03:59:54.633Z,51.05
2018-08-10T04:02:23.363Z,50.86
2018-08-10T04:04:52.071Z,50.90
2018-08-10T04:07:20.819Z,50.87
2018-08-10T04:09:49.777Z,51.10
2018-08-10T04:12:18.446Z,51.39
2018-08-10T04:14:47.619Z,51.52
2018-08-10T04:17:22.580Z,51.29
2018-08-10T04:19:52.072Z,52.41
2018-08-10T04:22:20.903Z,51.65
2018-08-10T04:24:49.910Z,51.39
2018-08-10T04:27:18.627Z,51.86
2018-08-10T04:29:47.582Z,52.16
2018-08-10T04:32:16.437Z,52.40
2018-08-10T04:34:45.242Z,52.85
2018-08-10T04:37:13.909Z,52.75
2018-08-10T04:39:42.607Z,52.91
2018-08-10T04:42:11.565Z,52.93
2018-08-10T04:44:40.600Z,53.18
2018-08-10T04:47:09.326Z,52.97
2018-08-10T04:49:38.015Z,52.64
2018-08-10T04:52:06.928Z,53.24
2018-08-10T04:54:35.600Z,52.51
2018-08-10T04:57:04.347Z,50.77
2018-08-10T04:59:33.361Z,50.47
2018-08-10T05:02:02.174Z,49.12
2018-08-10T05:04:31.022Z,48.77
2018-08-10T05:06:59.642Z,48.66
2018-08-10T05:09:28.443Z,46.77
2018-08-10T05:11:57.404Z,48.46
2018-08-10T05:14:26.146Z,49.33
2018-08-10T05:16:55.567Z,49.32
2018-08-10T05:19:24.482Z,49.16
2018-08-10T05:21:53.209Z,49.66
2018-08-10T05:24:22.467Z,50.58
2018-08-10T05:26:51.238Z,50.24
2018-08-10T05:29:19.856Z,50.88
2018-08-10T05:31:48.577Z,50.26
2018-08-10T05:34:17.301Z,51.20
2018-08-10T05:36:46.087Z,51.48
2018-08-10T05:39:14.683Z,51.52
2018-08-10T05:41:43.426Z,51.53
2018-08-10T05:44:12.467Z,51.43
2018-08-10T05:46:41.177Z,50.85
2018-08-10T05:49:09.840Z,51.13
2018-08-10T05:51:38.834Z,51.57
2018-08-10T05:54:07.991Z,51.96
2018-08-10T05:56:36.762Z,51.33
2018-08-10T05:59:05.732Z,51.99
2018-08-10T06:01:34.508Z,52.33
2018-08-10T06:04:03.244Z,52.63
2018-08-10T06:06:31.931Z,52.90
2018-08-10T06:09:00.638Z,53.10
2018-08-10T06:11:29.369Z,52.47
2018-08-10T06:13:58.199Z,52.49
2018-08-10T06:16:27.487Z,52.27
2018-08-10T06:18:56.149Z,52.32
2018-08-10T06:21:24.792Z,51.83
2018-08-10T06:23:53.524Z,51.96
2018-08-10T06:26:22.264Z,52.39
2018-08-10T06:28:51.106Z,51.75
2018-08-10T06:31:19.884Z,51.47
2018-08-10T06:33:48.900Z,51.95
2018-08-10T06:36:17.530Z,52.37
2018-08-10T06:38:46.276Z,53.29
2018-08-10T06:41:15.169Z,53.12
2018-08-10T06:43:43.788Z,53.36
2018-08-10T06:46:12.725Z,53.69
2018-08-10T06:48:41.569Z,53.92
2018-08-10T06:51:10.661Z,55.14
2018-08-10T06:53:39.352Z,55.14
2018-08-10T06:56:08.100Z,55.12
2018-08-10T06:58:36.945Z,54.27
2018-08-10T07:01:05.906Z,54.04
2018-08-10T07:03:34.773Z,53.97
2018-08-10T07:06:03.605Z,55.00
2018-08-10T07:08:32.248Z,54.27
2018-08-10T07:11:01.068Z,54.09
2018-08-10T07:13:29.823Z,54.01
2018-08-10T07:15:58.868Z,53.90
2018-08-10T07:18:27.810Z,53.73
2018-08-10T07:20:56.499Z,52.75
2018-08-10T07:23:25.560Z,52.03
2018-08-10T07:25:54.312Z,52.77
2018-08-10T07:28:23.057Z,51.93
2018-08-10T07:30:51.861Z,52.16
2018-08-10T07:33:20.515Z,52.40
2018-08-10T07:35:49.148Z,52.99
2018-08-10T07:38:18.061Z,53.58
2018-08-10T07:40:46.746Z,53.30
2018-08-10T07:43:15.489Z,53.60
2018-08-10T07:45:44.144Z,52.72
2018-08-10T07:48:12.810Z,52.89
2018-08-10T07:50:41.512Z,52.70
2018-08-10T07:53:10.317Z,52.63
2018-08-10T07:55:39.086Z,52.53
2018-08-10T07:58:08.046Z,52.57
2018-08-10T08:00:36.791Z,53.17
2018-08-10T08:03:05.657Z,54.31
2018-08-10T08:05:34.536Z,54.38
2018-08-10T08:08:03.280Z,54.57
2018-08-10T08:10:32.024Z,54.52
2018-08-10T08:13:00.789Z,54.85
2018-08-10T08:15:29.519Z,55.06
2018-08-10T08:17:58.297Z,55.59
2018-08-10T08:20:26.952Z,54.45
2018-08-10T08:23:02.047Z,54.79
2018-08-10T08:25:31.128Z,54.49
2018-08-10T08:28:00.005Z,52.99
2018-08-10T08:30:28.761Z,52.50
2018-08-10T08:32:57.555Z,52.27
2018-08-10T08:35:26.383Z,51.68
2018-08-10T08:38:00.628Z,52.48
2018-08-10T08:40:29.648Z,53.47
2018-08-10T08:42:58.637Z,54.08
2018-08-10T08:46:07.953Z,52.70
2018-08-10T08:48:39.302Z,53.95
2018-08-10T08:51:10.596Z,54.78
2018-08-10T08:53:39.335Z,54.87
2018-08-10T08:56:09.757Z,54.86
2018-08-10T08:58:39.151Z,56.43
2018-08-10T09:01:08.828Z,56.44
2018-08-10T09:03:48.710Z,57.04
2018-08-10T09:06:17.369Z,56.61
2018-08-10T09:08:57.257Z,57.24
2018-08-10T09:11:26.141Z,57.76
2018-08-10T09:15:03.846Z,58.67
2018-08-10T09:17:32.720Z,59.08
2018-08-10T09:20:01.799Z,59.64
2018-08-10T09:22:31.112Z,59.05
2018-08-10T09:25:00.022Z,59.49
2018-08-10T09:27:28.766Z,59.06
2018-08-10T09:29:57.589Z,59.51
2018-08-10T09:32:26.567Z,59.24
2018-08-10T09:34:55.219Z,59.92
2018-08-10T09:37:24.227Z,60.60
2018-08-10T09:39:52.955Z,60.62
2018-08-10T09:42:21.776Z,60.55
2018-08-10T09:44:50.620Z,60.01
2018-08-10T09:47:20.188Z,60.20
2018-08-10T09:49:50.184Z,61.08
2018-08-10T09:52:19.252Z,61.37
2018-08-10T09:55:40.856Z,60.30
2018-08-10T09:58:16.363Z,59.97
2018-08-10T10:00:50.150Z,60.61
2018-08-10T10:03:20.496Z,61.44
2018-08-10T10:05:50.526Z,61.49
2018-08-10T10:08:19.957Z,62.04
2018-08-10T10:10:48.847Z,62.01
2018-08-10T10:13:17.902Z,62.49
2018-08-10T10:15:46.652Z,63.19
2018-08-10T10:18:16.781Z,63.98
2018-08-10T10:20:46.485Z,63.81
2018-08-10T10:23:15.596Z,64.50
2018-08-10T10:25:44.453Z,64.60
2018-08-10T10:28:13.303Z,63.97
2018-08-10T10:30:42.161Z,64.68
2018-08-10T10:33:11.152Z,64.40
2018-08-10T10:35:40.209Z,63.53
2018-08-10T10:38:09.025Z,63.65
2018-08-10T10:40:37.986Z,64.25
2018-08-10T10:43:06.906Z,63.73
2018-08-10T10:45:35.973Z,64.20
2018-08-10T10:48:04.787Z,65.00
2018-08-10T10:50:33.788Z,65.32
2018-08-10T10:53:02.536Z,65.71
2018-08-10T10:55:31.647Z,64.54
2018-08-10T10:58:00.487Z,64.85
2018-08-10T11:00:29.215Z,64.90
2018-08-10T11:02:58.070Z,65.42
2018-08-10T11:05:27.054Z,65.01
2018-08-10T11:07:56.130Z,64.54
2018-08-10T11:10:24.979Z,65.99
2018-08-10T11:12:53.741Z,65.72
2018-08-10T11:15:22.891Z,65.38
2018-08-10T11:17:51.652Z,65.67
2018-08-10T11:20:20.513Z,65.76
2018-08-10T11:22:49.558Z,65.84
2018-08-10T11:25:18.439Z,66.89
2018-08-10T11:27:47.276Z,66.43
2018-08-10T11:30:15.983Z,66.53
2018-08-10T11:32:44.898Z,67.21
2018-08-10T11:35:13.861Z,67.69
2018-08-10T11:37:43.112Z,68.09
2018-08-10T11:40:14.523Z,67.84
2018-08-10T11:42:43.846Z,68.15
2018-08-10T11:45:15.811Z,68.95
2018-08-10T11:47:44.888Z,68.94
2018-08-10T11:50:13.708Z,68.46
2018-08-10T11:52:42.980Z,69.17
2018-08-10T11:55:13.733Z,69.21
2018-08-10T11:57:43.163Z,68.73
2018-08-10T12:00:13.644Z,69.47
2018-08-10T12:02:42.764Z,68.65
2018-08-10T12:05:12.744Z,68.00
2018-08-10T12:07:41.988Z,69.75
2018-08-10T12:10:10.975Z,69.65
2018-08-10T12:12:40.038Z,69.17
2018-08-10T12:15:11.118Z,69.28
2018-08-10T12:17:40.169Z,69.17
2018-08-10T12:20:09.716Z,70.26
2018-08-10T12:22:38.932Z,69.93
2018-08-10T12:25:07.885Z,69.95
2018-08-10T12:27:36.793Z,71.32
2018-08-10T12:30:06.789Z,70.41
2018-08-10T12:32:35.724Z,70.70
2018-08-10T12:35:04.724Z,71.90
2018-08-10T12:37:33.561Z,72.62
2018-08-10T12:40:02.326Z,72.54
2018-08-10T12:42:31.168Z,72.10
2018-08-10T12:45:00.125Z,73.76
2018-08-10T12:47:28.964Z,72.81
2018-08-10T12:49:57.842Z,74.00
2018-08-10T12:52:26.597Z,74.11
2018-08-10T12:54:55.491Z,75.61
2018-08-10T12:57:24.315Z,77.14
2018-08-10T12:59:53.102Z,77.64
2018-08-10T13:02:21.831Z,77.35
2018-08-10T13:04:50.743Z,76.94
2018-08-10T13:07:19.548Z,77.89
2018-08-10T13:09:48.564Z,79.02
2018-08-10T13:12:17.372Z,79.78
2018-08-10T13:14:46.913Z,78.53
2018-08-10T13:17:16.087Z,78.66
2018-08-10T13:19:44.876Z,80.54
2018-08-10T13:22:13.536Z,79.59
2018-08-10T13:24:42.324Z,79.28
2018-08-10T13:27:11.055Z,80.68
2018-08-10T13:29:39.926Z,81.29
2018-08-10T13:32:08.903Z,80.53
2018-08-10T13:34:37.668Z,81.66
2018-08-10T13:37:06.388Z,80.35
2018-08-10T13:39:35.227Z,81.02
2018-08-10T13:42:03.975Z,81.93
2018-08-10T13:44:32.687Z,80.77
2018-08-10T13:47:01.522Z,81.25
2018-08-10T13:49:30.339Z,82.80
2018-08-10T13:51:59.158Z,82.89
2018-08-10T13:54:27.929Z,82.51
2018-08-10T13:56:56.720Z,82.64
2018-08-10T13:59:25.419Z,84.05
2018-08-10T14:01:54.291Z,84.72
2018-08-10T14:04:23.143Z,84.03
2018-08-10T14:06:52.368Z,84.40
2018-08-10T14:09:21.200Z,84.02
2018-08-10T14:11:49.969Z,85.10
2018-08-10T14:14:18.749Z,85.02
2018-08-10T14:16:47.728Z,85.21
2018-08-10T14:19:16.964Z,86.23
2018-08-10T14:21:45.714Z,85.47
2018-08-10T14:24:14.438Z,86.44
2018-08-10T14:26:43.336Z,86.36
2018-08-10T14:29:12.126Z,85.75
2018-08-10T14:31:41.203Z,86.62
2018-08-10T14:34:10.349Z,85.87
2018-08-10T14:36:39.125Z,86.83
2018-08-10T14:39:11.363Z,86.84
2018-08-10T14:41:40.491Z,86.60
2018-08-10T14:44:09.357Z,87.09
2018-08-10T14:46:38.092Z,86.50
2018-08-10T14:49:07.964Z,87.53
2018-08-10T14:51:37.027Z,87.42
2018-08-10T14:54:06.159Z,87.90
2018-08-10T14:56:34.881Z,87.02
2018-08-10T14:59:03.572Z,87.17
2018-08-10T15:01:32.299Z,87.65
2018-08-10T15:04:01.172Z,87.33
2018-08-10T15:06:30.129Z,87.25
2018-08-10T15:08:58.992Z,86.97
2018-08-10T15:11:28.166Z,87.68
2018-08-10T15:13:57.100Z,87.94
2018-08-10T15:16:26.058Z,87.55
2018-08-10T15:18:55.074Z,87.66
2018-08-10T15:21:24.135Z,87.20
2018-08-10T15:23:53.117Z,87.96
2018-08-10T15:26:21.820Z,87.48
2018-08-10T15:28:50.618Z,87.79
2018-08-10T15:31:19.373Z,87.26
2018-08-10T15:33:48.311Z,87.92
2018-08-10T15:36:16.942Z,87.61
2018-08-10T15:38:45.696Z,86.88
2018-08-10T15:41:14.579Z,87.57
2018-08-10T15:43:43.417Z,87.40
2018-08-10T15:46:12.071Z,87.57
2018-08-10T15:48:40.927Z,87.08
2018-08-10T15:51:09.663Z,87.39
2018-08-10T15:53:38.801Z,87.13
2018-08-10T15:56:07.758Z,86.87
2018-08-10T15:58:36.465Z,86.52
2018-08-10T16:01:05.376Z,86.50
2018-08-10T16:03:34.127Z,86.27
2018-08-10T16:06:03.099Z,86.40
2018-08-10T16:08:31.821Z,86.45
2018-08-10T16:11:00.567Z,86.24
2018-08-10T16:13:29.594Z,86.05
2018-08-10T16:15:58.482Z,86.15
2018-08-10T16:18:27.357Z,86.27
2018-08-10T16:20:56.261Z,86.61
2018-08-10T16:23:25.052Z,86.68
2018-08-10T16:25:53.756Z,86.33
2018-08-10T16:28:22.461Z,86.38
2018-08-10T16:30:51.227Z,86.57
2018-08-10T16:33:19.961Z,86.63
2018-08-10T16:35:48.936Z,87.21
2018-08-10T16:38:17.691Z,86.87
2018-08-10T16:40:46.631Z,86.76
2018-08-10T16:43:15.417Z,87.29
2018-08-10T16:45:44.107Z,87.14
2018-08-10T16:48:12.867Z,87.79
2018-08-10T16:50:41.672Z,87.54
2018-08-10T16:53:10.641Z,87.54
2018-08-10T16:55:39.841Z,87.18
2018-08-10T16:58:09.025Z,87.56
2018-08-10T17:00:38.408Z,87.74
2018-08-10T17:03:07.618Z,87.75
2018-08-10T17:05:36.322Z,87.68
2018-08-10T17:08:05.645Z,87.55
2018-08-10T17:10:34.467Z,87.68
2018-08-10T17:13:03.632Z,87.75
2018-08-10T17:15:32.911Z,88.55
2018-08-10T17:18:01.866Z,88.24
2018-08-10T17:20:30.510Z,87.92
2018-08-10T17:22:59.500Z,87.82
2018-08-10T17:25:28.523Z,88.38
2018-08-10T17:27:57.369Z,88.66
2018-08-10T17:30:26.110Z,88.10
2018-08-10T17:32:55.295Z,88.23
2018-08-10T17:35:24.158Z,88.71
2018-08-10T17:37:53.155Z,88.81
2018-08-10T17:40:21.983Z,89.24
2018-08-10T17:42:50.871Z,89.08
2018-08-10T17:45:20.029Z,89.12
2018-08-10T17:47:48.817Z,88.78
2018-08-10T17:50:20.747Z,89.28
2018-08-10T17:52:51.257Z,89.65
2018-08-10T17:55:20.771Z,89.00
2018-08-10T17:57:50.328Z,88.77
2018-08-10T18:00:20.790Z,89.09
2018-08-10T18:02:50.586Z,88.96
2018-08-10T18:05:19.690Z,89.02
2018-08-10T18:07:49.348Z,88.94
2018-08-10T18:10:19.285Z,89.18
2018-08-10T18:12:48.433Z,89.53
2018-08-10T18:15:18.779Z,89.33
2018-08-10T18:17:48.238Z,89.14
2018-08-10T18:20:19.261Z,89.27
2018-08-10T18:22:49.680Z,89.69
2018-08-10T18:25:19.765Z,89.46
2018-08-10T18:27:48.795Z,89.55
2018-08-10T18:30:23.147Z,89.37
2018-08-10T18:32:52.639Z,89.09
2018-08-10T18:35:21.469Z,89.36
2018-08-10T18:37:51.610Z,88.79
2018-08-10T18:40:21.173Z,88.89
2018-08-10T18:42:50.588Z,89.18
2018-08-10T18:45:20.984Z,88.73
2018-08-10T18:47:50.185Z,88.64
2018-08-10T18:50:19.851Z,88.92
2018-08-10T18:52:48.734Z,88.57
2018-08-10T18:55:20.767Z,88.89
2018-08-10T18:57:51.598Z,88.87
2018-08-10T19:00:22.246Z,88.49
2018-08-10T19:02:51.742Z,88.68
2018-08-10T19:05:20.818Z,89.07
2018-08-10T19:07:50.406Z,88.43
2018-08-10T19:10:26.301Z,88.38
2018-08-10T19:12:55.338Z,88.37
2018-08-10T19:15:24.038Z,87.79
2018-08-10T19:17:53.045Z,88.30
2018-08-10T19:20:21.876Z,88.67
2018-08-10T19:22:50.685Z,88.79
2018-08-10T19:25:19.589Z,88.07
2018-08-10T19:27:48.506Z,88.32
2018-08-10T19:30:20.187Z,88.44
2018-08-10T19:32:49.539Z,88.56
2018-08-10T19:35:19.270Z,88.85
2018-08-10T19:37:48.110Z,88.23
2018-08-10T19:40:18.029Z,88.45
2018-08-10T19:42:46.900Z,88.22
2018-08-10T19:45:16.552Z,88.18
2018-08-10T19:47:45.757Z,88.05
2018-08-10T19:50:15.860Z,87.77
2018-08-10T19:52:44.752Z,88.00
2018-08-10T19:55:15.314Z,87.96
2018-08-10T19:57:44.304Z,87.79
2018-08-10T20:00:14.820Z,88.52
2018-08-10T20:02:43.879Z,88.24
2018-08-10T20:05:12.751Z,88.47
2018-08-10T20:07:41.657Z,88.48
2018-08-10T20:10:12.142Z,87.85
2018-08-10T20:12:41.340Z,88.25
2018-08-10T20:15:12.339Z,88.56
2018-08-10T20:17:41.960Z,88.22
2018-08-10T20:20:12.730Z,88.32
2018-08-10T20:22:41.479Z,88.62
2018-08-10T20:25:11.415Z,88.58
2018-08-10T20:27:40.841Z,88.32
2018-08-10T20:30:12.809Z,88.57
2018-08-10T20:32:41.510Z,88.08
2018-08-10T20:35:15.307Z,88.37
2018-08-10T20:37:44.870Z,88.26
2018-08-10T20:40:16.611Z,87.78
2018-08-10T20:42:45.942Z,87.44
2018-08-10T20:45:15.081Z,87.69
2018-08-10T20:47:44.305Z,87.79
2018-08-10T20:50:16.265Z,87.92
2018-08-10T20:52:45.497Z,87.90
2018-08-10T20:55:14.447Z,87.66
2018-08-10T20:57:45.995Z,88.20
2018-08-10T21:00:14.989Z,87.91
2018-08-10T21:02:44.659Z,87.70
2018-08-10T21:05:13.914Z,87.85
2018-08-10T21:07:44.557Z,87.95
2018-08-10T21:10:14.432Z,88.27
2018-08-10T21:12:44.637Z,88.04
2018-08-10T21:15:15.291Z,87.76
2018-08-10T21:17:44.838Z,87.76
2018-08-10T21:20:15.501Z,87.81
2018-08-10T21:22:44.414Z,87.80
2018-08-10T21:25:14.693Z,88.17
2018-08-10T21:27:45.420Z,88.14
2018-08-10T21:30:18.313Z,87.88
2018-08-10T21:32:49.223Z,89.10
2018-08-10T21:35:21.206Z,88.79
2018-08-10T21:37:50.730Z,88.40
2018-08-10T21:40:19.584Z,88.71
2018-08-10T21:42:48.411Z,89.01
2018-08-10T21:45:18.055Z,88.69
2018-08-10T21:47:46.933Z,88.67
2018-08-10T21:50:16.342Z,89.10
2018-08-10T21:52:45.762Z,89.21
2018-08-10T21:55:14.557Z,89.17
2018-08-10T21:57:43.615Z,88.66
2018-08-10T22:00:22.560Z,88.51
2018-08-10T22:02:51.287Z,88.22
2018-08-10T22:05:20.099Z,88.60
2018-08-10T22:07:48.838Z,88.07
2018-08-10T22:10:17.553Z,88.26
2018-08-10T22:12:48.798Z,88.02
2018-08-10T22:15:22.993Z,87.96
2018-08-10T22:17:56.997Z,88.36
2018-08-10T22:20:26.089Z,88.04
2018-08-10T22:22:55.018Z,87.85
2018-08-10T22:25:23.938Z,88.49
2018-08-10T22:27:52.705Z,88.30
2018-08-10T22:30:21.698Z,88.05
2018-08-10T22:32:50.535Z,88.41
2018-08-10T22:35:19.428Z,88.31
2018-08-10T22:37:48.490Z,88.03
2018-08-10T22:40:17.579Z,87.73
2018-08-10T22:42:46.535Z,86.99
2018-08-10T22:45:15.285Z,87.26
2018-08-10T22:47:44.397Z,86.89
2018-08-10T22:50:13.144Z,86.58
2018-08-10T22:52:42.249Z,86.24
2018-08-10T22:55:11.001Z,86.20
2018-08-10T22:57:39.862Z,85.91
2018-08-10T23:00:08.570Z,85.85
2018-08-10T23:02:37.547Z,85.19
2018-08-10T23:05:06.878Z,85.67
2018-08-10T23:07:36.054Z,85.25
2018-08-10T23:10:06.683Z,85.42
2018-08-10T23:12:35.678Z,85.31
2018-08-10T23:15:05.379Z,84.63
2018-08-10T23:17:34.018Z,84.23
2018-08-10T23:20:02.936Z,83.79
2018-08-10T23:22:31.587Z,83.67
2018-08-10T23:25:00.155Z,83.19
2018-08-10T23:27:28.859Z,82.96
2018-08-10T23:29:57.631Z,82.36
2018-08-10T23:32:27.345Z,82.68
2018-08-10T23:34:56.097Z,81.46
2018-08-10T23:37:24.912Z,81.35
2018-08-10T23:39:53.657Z,81.06
2018-08-10T23:42:23.367Z,81.33
2018-08-10T23:44:52.168Z,80.83
2018-08-10T23:47:22.025Z,79.73
2018-08-10T23:49:50.718Z,79.88
2018-08-10T23:52:19.452Z,79.87
2018-08-10T23:54:48.579Z,79.75
2018-08-10T23:57:17.639Z,80.05
2018-08-10T23:59:46.841Z,79.65
